Time;durP1;ratioP1;P1;durP2;ratioP2;P2;SDS_P1;SDS_P2;PMS_P1;PMS_P2;Temp;Humidity;BMP_temperature;BMP_pressure;BME280_temperature;BME280_humidity;BME280_pressure;Samples;Min_cycle;Max_cycle;Signal;HPM_P1;HPM_P2
2024/01/12 00:00:24;;;;;;;8.25;5.50;;;3.30;78.90;;;;;;4718482;30;20037;-95
2024/01/12 00:02:49;;;;;;;8.73;5.90;;;3.30;79.00;;;;;;4733675;30;20028;-94
2024/01/12 00:05:15;;;;;;;8.93;6.07;;;3.30;79.00;;;;;;4748391;30;20028;-96
2024/01/12 00:07:41;;;;;;;9.73;6.70;;;3.30;79.00;;;;;;4734594;30;20477;-95
2024/01/12 00:10:08;;;;;;;9.15;5.80;;;3.30;78.90;;;;;;4737831;30;20036;-94
2024/01/12 00:12:34;;;;;;;9.70;6.10;;;3.30;79.00;;;;;;4723396;30;20141;-95
2024/01/12 00:15:02;;;;;;;9.27;5.90;;;3.30;79.00;;;;;;4733917;30;20040;-95
2024/01/12 00:17:28;;;;;;;9.90;5.93;;;3.30;79.00;;;;;;4732054;30;20036;-96
2024/01/12 00:19:54;;;;;;;8.95;5.72;;;3.30;79.00;;;;;;4748374;30;20036;-95
2024/01/12 00:22:20;;;;;;;8.50;5.68;;;3.30;78.90;;;;;;4729614;30;20032;-96
2024/01/12 00:24:46;;;;;;;9.00;5.88;;;3.30;78.90;;;;;;4729904;30;20044;-94
2024/01/12 00:27:12;;;;;;;8.40;5.85;;;3.40;79.00;;;;;;4733678;30;20024;-95
2024/01/12 00:29:38;;;;;;;9.98;6.32;;;3.30;79.00;;;;;;4729255;30;20036;-95
2024/01/12 00:32:05;;;;;;;9.50;5.85;;;3.30;79.00;;;;;;4715953;30;20048;-96
2024/01/12 00:34:31;;;;;;;8.77;5.70;;;3.30;79.00;;;;;;4718424;30;20028;-95
2024/01/12 00:36:57;;;;;;;11.23;6.50;;;3.30;79.00;;;;;;4743514;30;20033;-96
2024/01/12 00:39:23;;;;;;;9.52;5.85;;;3.30;79.00;;;;;;4719018;30;20052;-96
2024/01/12 00:41:50;;;;;;;7.90;5.35;;;3.40;79.00;;;;;;4730561;30;20042;-95
2024/01/12 00:44:19;;;;;;;8.75;5.93;;;3.30;79.00;;;;;;4730419;30;20035;-96
2024/01/12 00:46:50;;;;;;;8.60;5.78;;;3.40;79.00;;;;;;4730979;30;20041;-95
2024/01/12 00:49:20;;;;;;;10.05;6.40;;;3.40;79.00;;;;;;4713537;30;20060;-95
2024/01/12 00:51:46;;;;;;;8.95;5.93;;;3.40;79.00;;;;;;4714088;30;20125;-96
2024/01/12 00:54:12;;;;;;;8.82;5.95;;;3.40;79.00;;;;;;4730746;30;20060;-95
2024/01/12 00:56:38;;;;;;;9.05;6.32;;;3.40;79.00;;;;;;4716934;30;20045;-96
2024/01/12 00:59:05;;;;;;;8.55;6.50;;;3.40;79.00;;;;;;4711330;30;20041;-96
2024/01/12 01:01:30;;;;;;;9.32;6.43;;;3.40;79.00;;;;;;4739338;30;20111;-95
2024/01/12 01:03:57;;;;;;;10.00;6.65;;;3.40;79.00;;;;;;4730728;30;20045;-95
2024/01/12 01:06:22;;;;;;;9.27;6.10;;;3.40;79.10;;;;;;4717793;30;20134;-96
2024/01/12 01:08:48;;;;;;;9.73;6.80;;;3.40;79.00;;;;;;4727380;30;20064;-95
2024/01/12 01:11:14;;;;;;;9.55;6.32;;;3.40;79.10;;;;;;4730923;30;20041;-95
2024/01/12 01:13:41;;;;;;;10.18;6.45;;;3.30;79.00;;;;;;4715971;30;20040;-96
2024/01/12 01:16:07;;;;;;;8.35;5.70;;;3.40;79.10;;;;;;4724694;30;20494;-96
2024/01/12 01:18:33;;;;;;;9.20;6.30;;;3.40;79.00;;;;;;4717750;30;20090;-95
2024/01/12 01:20:59;;;;;;;8.27;5.68;;;3.40;79.10;;;;;;4719966;30;20076;-95
2024/01/12 01:23:25;;;;;;;9.93;6.43;;;3.40;79.00;;;;;;4739990;30;20031;-96
2024/01/12 01:25:51;;;;;;;8.40;5.57;;;3.40;79.10;;;;;;4731448;30;20037;-96
2024/01/12 01:28:17;;;;;;;10.05;6.38;;;3.40;79.10;;;;;;4733509;30;20088;-95
2024/01/12 01:30:42;;;;;;;10.52;6.68;;;3.40;79.10;;;;;;4727860;30;20583;-95
2024/01/12 01:33:08;;;;;;;9.38;6.22;;;3.40;79.10;;;;;;4713791;30;20048;-95
2024/01/12 01:35:34;;;;;;;9.95;6.20;;;3.40;79.10;;;;;;4734658;30;20056;-96
2024/01/12 01:38:00;;;;;;;9.13;6.10;;;3.40;79.10;;;;;;4726028;30;20045;-95
2024/01/12 01:40:26;;;;;;;9.82;6.35;;;3.40;79.10;;;;;;4716749;30;20029;-94
2024/01/12 01:42:52;;;;;;;9.95;6.00;;;3.40;79.10;;;;;;4729018;30;20033;-95
2024/01/12 01:45:17;;;;;;;9.23;6.03;;;3.40;79.00;;;;;;4720347;30;20025;-96
2024/01/12 01:47:45;;;;;;;9.63;6.25;;;3.40;79.00;;;;;;4733594;30;21817;-96
2024/01/12 01:50:13;;;;;;;9.25;5.80;;;3.40;79.10;;;;;;4729672;30;20201;-95
2024/01/12 01:52:39;;;;;;;9.02;5.88;;;3.40;79.10;;;;;;4727579;30;20051;-96
2024/01/12 01:55:05;;;;;;;8.48;5.70;;;3.40;79.10;;;;;;4732460;30;20025;-96
2024/01/12 01:57:32;;;;;;;9.38;6.47;;;3.40;79.10;;;;;;4724761;30;20043;-96
2024/01/12 01:59:58;;;;;;;9.00;6.25;;;3.40;79.10;;;;;;4732718;30;20064;-95
2024/01/12 02:02:25;;;;;;;9.45;6.50;;;3.40;79.10;;;;;;4713016;30;20032;-94
2024/01/12 02:04:53;;;;;;;8.60;6.22;;;3.40;79.10;;;;;;4729627;30;20044;-96
2024/01/12 02:07:19;;;;;;;10.00;6.50;;;3.40;79.10;;;;;;4719860;30;20063;-96
2024/01/12 02:09:44;;;;;;;10.15;6.20;;;3.40;79.10;;;;;;4732136;30;20527;-95
2024/01/12 02:12:10;;;;;;;9.68;6.32;;;3.40;79.10;;;;;;4732095;30;20029;-95
2024/01/12 02:14:36;;;;;;;11.10;6.57;;;3.40;79.10;;;;;;4726371;30;20044;-95
2024/01/12 02:17:02;;;;;;;10.50;6.35;;;3.40;79.10;;;;;;4715380;30;20033;-95
2024/01/12 02:19:28;;;;;;;10.43;6.75;;;3.40;79.10;;;;;;4731404;30;20040;-95
2024/01/12 02:21:54;;;;;;;9.25;6.47;;;3.40;79.10;;;;;;4718416;30;20521;-95
2024/01/12 02:24:19;;;;;;;9.32;6.40;;;3.40;79.20;;;;;;4712918;30;20405;-95
2024/01/12 02:26:45;;;;;;;9.52;6.32;;;3.40;79.10;;;;;;4715549;30;20132;-96
2024/01/12 02:29:12;;;;;;;8.80;6.50;;;3.40;79.20;;;;;;4715747;30;20068;-96
2024/01/12 02:31:39;;;;;;;9.65;6.10;;;3.50;79.20;;;;;;4721507;30;20041;-95
2024/01/12 02:34:05;;;;;;;9.30;6.55;;;3.50;79.20;;;;;;4726560;30;20478;-95
2024/01/12 02:36:31;;;;;;;9.80;6.68;;;3.40;79.10;;;;;;4729559;30;20062;-95
2024/01/12 02:38:56;;;;;;;8.63;6.00;;;3.50;79.20;;;;;;4722239;30;20517;-95
2024/01/12 02:41:22;;;;;;;11.35;7.10;;;3.50;79.20;;;;;;4742241;30;20513;-96
2024/01/12 02:43:48;;;;;;;9.15;6.15;;;3.50;79.20;;;;;;4729118;30;20079;-96
2024/01/12 02:46:14;;;;;;;10.55;6.55;;;3.50;79.20;;;;;;4719848;30;20052;-95
2024/01/12 02:48:40;;;;;;;9.18;6.18;;;3.50;79.20;;;;;;4732461;30;20442;-96
2024/01/12 02:51:06;;;;;;;9.95;6.85;;;3.50;79.30;;;;;;4724853;30;20025;-95
2024/01/12 02:53:32;;;;;;;10.60;6.50;;;3.50;79.20;;;;;;4739476;30;20395;-96
2024/01/12 02:55:58;;;;;;;9.57;6.32;;;3.50;79.20;;;;;;4733976;30;20498;-95
2024/01/12 02:58:25;;;;;;;9.82;6.32;;;3.50;79.20;;;;;;4736523;30;20025;-95
2024/01/12 03:00:52;;;;;;;8.95;6.18;;;3.50;79.20;;;;;;4717231;30;20394;-95
2024/01/12 03:03:21;;;;;;;10.73;7.20;;;3.50;79.20;;;;;;4730558;30;20029;-96
2024/01/12 03:05:48;;;;;;;10.40;6.45;;;3.50;79.30;;;;;;4718056;30;20028;-96
2024/01/12 03:08:14;;;;;;;10.32;6.88;;;3.50;79.20;;;;;;4739994;30;20029;-96
2024/01/12 03:10:40;;;;;;;8.80;6.40;;;3.50;79.20;;;;;;4726275;30;20556;-95
2024/01/12 03:13:06;;;;;;;9.98;6.32;;;3.50;79.20;;;;;;4739045;30;20044;-94
2024/01/12 03:15:32;;;;;;;9.20;6.32;;;3.50;79.20;;;;;;4712331;30;20133;-96
2024/01/12 03:17:58;;;;;;;9.80;6.68;;;3.50;79.20;;;;;;4731358;30;20115;-95
2024/01/12 03:20:24;;;;;;;8.80;5.93;;;3.50;79.30;;;;;;4717818;30;20033;-94
2024/01/12 03:22:50;;;;;;;9.95;6.22;;;3.50;79.30;;;;;;4715716;30;20067;-94
2024/01/12 03:25:15;;;;;;;10.27;6.80;;;3.50;79.30;;;;;;4727017;30;20029;-95
2024/01/12 03:27:41;;;;;;;8.43;6.00;;;3.50;79.30;;;;;;4731783;30;20060;-96
2024/01/12 03:30:07;;;;;;;10.95;7.18;;;3.50;79.20;;;;;;4730052;30;20037;-94
2024/01/12 03:32:33;;;;;;;9.10;5.93;;;3.50;79.30;;;;;;4711373;30;20540;-94
2024/01/12 03:34:59;;;;;;;10.20;6.68;;;3.50;79.30;;;;;;4730452;30;20065;-94
2024/01/12 03:37:25;;;;;;;6.72;5.15;;;3.50;79.30;;;;;;4725409;30;20028;-94
2024/01/12 03:39:51;;;;;;;8.75;6.18;;;3.50;79.30;;;;;;4714474;30;20532;-96
2024/01/12 03:42:17;;;;;;;9.15;5.82;;;3.50;79.30;;;;;;4716720;30;20109;-95
2024/01/12 03:44:43;;;;;;;8.52;5.85;;;3.50;79.30;;;;;;4731350;30;20044;-95
2024/01/12 03:47:09;;;;;;;9.68;5.63;;;3.50;79.30;;;;;;4717330;30;20033;-96
2024/01/12 03:49:35;;;;;;;8.32;5.60;;;3.50;79.30;;;;;;4712675;30;20533;-95
2024/01/12 03:52:00;;;;;;;9.27;5.80;;;3.50;79.30;;;;;;4723392;30;20072;-94
2024/01/12 03:54:26;;;;;;;8.65;5.78;;;3.50;79.30;;;;;;4710429;30;20048;-93
2024/01/12 03:56:52;;;;;;;8.60;5.45;;;3.50;79.30;;;;;;4718584;30;20036;-93
2024/01/12 03:59:18;;;;;;;10.30;5.93;;;3.50;79.30;;;;;;4715921;30;20033;-95
2024/01/12 04:01:45;;;;;;;7.63;5.20;;;3.60;79.30;;;;;;4734835;30;20040;-93
2024/01/12 04:04:12;;;;;;;7.05;5.10;;;3.50;79.30;;;;;;4734396;30;20044;-94
2024/01/12 04:06:39;;;;;;;6.63;4.55;;;3.60;79.30;;;;;;4733648;30;20041;-94
2024/01/12 04:09:05;;;;;;;7.35;5.18;;;3.60;79.30;;;;;;4733575;30;20041;-95
2024/01/12 04:11:31;;;;;;;9.45;5.78;;;3.60;79.30;;;;;;4718815;30;20043;-94
2024/01/12 04:13:56;;;;;;;7.70;5.20;;;3.60;79.30;;;;;;4718427;30;20048;-93
2024/01/12 04:16:22;;;;;;;7.95;5.35;;;3.60;79.30;;;;;;4725286;30;20053;-95
2024/01/12 04:18:48;;;;;;;7.18;5.03;;;3.50;79.20;;;;;;4731585;30;20030;-94
2024/01/12 04:21:14;;;;;;;7.90;4.85;;;3.60;79.30;;;;;;4722099;30;20581;-93
2024/01/12 04:23:40;;;;;;;6.80;4.95;;;3.60;79.30;;;;;;4715736;30;20041;-94
2024/01/12 04:26:06;;;;;;;8.20;4.97;;;3.60;79.30;;;;;;4719073;30;20051;-94
2024/01/12 04:28:32;;;;;;;8.20;4.60;;;3.60;79.30;;;;;;4731976;30;20037;-94
2024/01/12 04:31:00;;;;;;;7.82;4.65;;;3.60;79.30;;;;;;4729689;30;20036;-94
2024/01/12 04:33:26;;;;;;;8.20;4.72;;;3.60;79.30;;;;;;4727724;30;20047;-92
2024/01/12 04:35:51;;;;;;;7.22;4.30;;;3.60;79.30;;;;;;4749746;30;20028;-94
2024/01/12 04:38:19;;;;;;;7.05;4.25;;;3.60;79.30;;;;;;4726458;30;20025;-95
2024/01/12 04:40:45;;;;;;;7.30;4.68;;;3.60;79.30;;;;;;4736413;30;20567;-92
2024/01/12 04:43:11;;;;;;;7.97;5.13;;;3.60;79.30;;;;;;4736521;30;20036;-94
2024/01/12 04:45:36;;;;;;;6.53;4.47;;;3.60;79.30;;;;;;4732457;30;20035;-95
2024/01/12 04:48:02;;;;;;;7.38;4.72;;;3.60;79.40;;;;;;4718680;30;20486;-93
2024/01/12 04:50:28;;;;;;;6.18;3.97;;;3.60;79.30;;;;;;4733222;30;20037;-93
2024/01/12 04:52:54;;;;;;;7.45;4.93;;;3.60;79.30;;;;;;4731785;30;20035;-93
2024/01/12 04:55:21;;;;;;;7.90;4.63;;;3.60;79.30;;;;;;4735517;30;20143;-93
2024/01/12 04:57:46;;;;;;;6.32;4.25;;;3.60;79.30;;;;;;4716513;30;20037;-94
2024/01/12 05:00:13;;;;;;;6.18;4.20;;;3.60;79.30;;;;;;4745495;30;20281;-94
2024/01/12 05:02:40;;;;;;;7.20;4.63;;;3.60;79.30;;;;;;4732611;30;20067;-94
2024/01/12 05:05:08;;;;;;;6.95;3.88;;;3.60;79.30;;;;;;4723130;30;20028;-94
2024/01/12 05:07:34;;;;;;;7.00;4.38;;;3.60;79.30;;;;;;4738295;30;20036;-94
2024/01/12 05:10:00;;;;;;;5.93;3.90;;;3.60;79.30;;;;;;4721003;30;20561;-92
2024/01/12 05:12:26;;;;;;;6.45;4.10;;;3.70;79.40;;;;;;4721855;30;20068;-94
2024/01/12 05:14:52;;;;;;;6.15;4.15;;;3.70;79.40;;;;;;4741420;30;20036;-93
2024/01/12 05:17:18;;;;;;;6.90;4.22;;;3.70;79.40;;;;;;4741469;30;20457;-94
2024/01/12 05:19:44;;;;;;;5.20;3.78;;;3.70;79.40;;;;;;4732255;30;20044;-94
2024/01/12 05:22:10;;;;;;;7.03;4.07;;;3.70;79.30;;;;;;4748917;30;20027;-94
2024/01/12 05:24:36;;;;;;;8.20;3.75;;;3.60;79.30;;;;;;4719768;30;20036;-92
2024/01/12 05:27:01;;;;;;;5.82;4.15;;;3.70;79.30;;;;;;4733759;30;20035;-93
2024/01/12 05:29:27;;;;;;;5.68;3.80;;;3.70;79.30;;;;;;4718942;30;20029;-95
2024/01/12 05:31:53;;;;;;;6.95;3.97;;;3.70;79.30;;;;;;4710061;30;20040;-94
2024/01/12 05:34:19;;;;;;;6.57;4.28;;;3.70;79.40;;;;;;4712740;30;20504;-95
2024/01/12 05:36:44;;;;;;;6.93;4.13;;;3.70;79.30;;;;;;4698483;30;20045;-91
2024/01/12 05:39:10;;;;;;;5.95;3.92;;;3.70;79.30;;;;;;4700057;30;20025;-91
2024/01/12 05:41:36;;;;;;;6.25;3.80;;;3.70;79.30;;;;;;4715625;30;20176;-92
2024/01/12 05:44:02;;;;;;;6.00;3.70;;;3.70;79.40;;;;;;4718850;30;20056;-94
2024/01/12 05:46:28;;;;;;;4.53;3.33;;;3.70;79.30;;;;;;4724911;30;20082;-94
2024/01/12 05:48:54;;;;;;;5.70;3.58;;;3.70;79.30;;;;;;4724274;30;20067;-96
2024/01/12 05:51:20;;;;;;;4.85;3.50;;;3.70;79.30;;;;;;4706230;30;20096;-94
2024/01/12 05:53:46;;;;;;;5.82;3.65;;;3.70;79.30;;;;;;4702323;30;20121;-95
2024/01/12 05:56:12;;;;;;;5.03;3.55;;;3.70;79.30;;;;;;4699277;30;20029;-95
2024/01/12 05:58:38;;;;;;;5.65;3.47;;;3.70;79.30;;;;;;4701907;30;20041;-94
2024/01/12 06:01:04;;;;;;;5.80;3.50;;;3.70;79.30;;;;;;4695239;30;20057;-94
2024/01/12 06:03:29;;;;;;;7.18;3.50;;;3.70;79.40;;;;;;4713884;30;20045;-92
2024/01/12 06:05:56;;;;;;;5.35;3.35;;;3.70;79.40;;;;;;4697188;30;20042;-95
2024/01/12 06:08:22;;;;;;;5.60;3.70;;;3.70;79.40;;;;;;4706756;30;20514;-96
2024/01/12 06:10:48;;;;;;;5.90;4.03;;;3.70;79.40;;;;;;4704922;30;20032;-93
2024/01/12 06:13:14;;;;;;;4.57;3.13;;;3.70;79.40;;;;;;4728463;30;20059;-94
2024/01/12 06:15:40;;;;;;;5.47;3.40;;;3.70;79.30;;;;;;4722005;30;20033;-94
2024/01/12 06:18:06;;;;;;;5.75;3.50;;;3.70;79.30;;;;;;4722532;30;20399;-89
2024/01/12 06:20:32;;;;;;;5.03;3.42;;;3.70;79.30;;;;;;4703027;30;20033;-93
2024/01/12 06:22:58;;;;;;;5.35;3.40;;;3.70;79.30;;;;;;4715866;30;20025;-90
2024/01/12 06:25:24;;;;;;;5.05;3.47;;;3.70;79.30;;;;;;4706185;30;20116;-88
2024/01/12 06:27:50;;;;;;;4.93;3.20;;;3.70;79.40;;;;;;4701520;30;20482;-92
2024/01/12 06:30:16;;;;;;;5.75;3.25;;;3.70;79.30;;;;;;4711440;30;20566;-92
2024/01/12 06:32:43;;;;;;;4.45;3.20;;;3.70;80.00;;;;;;4729216;30;20045;-91
2024/01/12 06:35:13;;;;;;;5.50;3.53;;;3.70;79.40;;;;;;4725863;30;20043;-91
2024/01/12 06:37:39;;;;;;;4.40;3.10;;;3.70;79.40;;;;;;4721315;30;20083;-95
2024/01/12 06:40:05;;;;;;;5.47;3.53;;;3.70;79.30;;;;;;4718416;30;20482;-93
2024/01/12 06:42:31;;;;;;;5.43;3.25;;;3.80;79.50;;;;;;4715114;30;20033;-94
2024/01/12 06:44:57;;;;;;;5.03;3.50;;;3.70;79.40;;;;;;4722470;30;20032;-95
2024/01/12 06:47:23;;;;;;;4.70;2.92;;;3.70;79.30;;;;;;4735314;30;20029;-95
2024/01/12 06:49:49;;;;;;;4.75;3.30;;;3.70;79.30;;;;;;4719339;30;20049;-95
2024/01/12 06:52:15;;;;;;;4.65;3.00;;;3.70;79.30;;;;;;4746281;30;20033;-95
2024/01/12 06:54:44;;;;;;;5.55;3.38;;;3.80;79.40;;;;;;4721538;30;20039;-93
2024/01/12 06:57:10;;;;;;;4.45;3.03;;;3.80;79.40;;;;;;4720562;30;20037;-93
2024/01/12 06:59:36;;;;;;;4.80;3.42;;;3.80;79.40;;;;;;4715897;30;20037;-94
2024/01/12 07:02:02;;;;;;;4.63;3.20;;;3.80;79.30;;;;;;4732176;30;20194;-93
2024/01/12 07:04:28;;;;;;;4.72;3.15;;;3.80;79.30;;;;;;4719351;30;20268;-92
2024/01/12 07:06:54;;;;;;;5.35;3.20;;;3.80;79.30;;;;;;4736797;30;20628;-94
2024/01/12 07:09:20;;;;;;;5.25;3.38;;;3.80;79.30;;;;;;4736232;30;20033;-92
2024/01/12 07:11:45;;;;;;;4.85;3.30;;;3.80;79.30;;;;;;4725475;30;20051;-92
2024/01/12 07:14:14;;;;;;;5.35;3.45;;;3.80;79.30;;;;;;4736126;30;20095;-90
2024/01/12 07:16:40;;;;;;;5.38;3.40;;;3.80;79.30;;;;;;4739649;30;20199;-91
2024/01/12 07:19:06;;;;;;;4.95;3.25;;;3.80;79.30;;;;;;4726665;30;20116;-93
2024/01/12 07:21:33;;;;;;;5.57;3.30;;;3.80;79.30;;;;;;4708778;30;20097;-94
2024/01/12 07:23:59;;;;;;;6.60;3.63;;;3.80;79.40;;;;;;4726097;30;20095;-95
2024/01/12 07:26:25;;;;;;;5.03;3.33;;;3.80;79.40;;;;;;4719832;30;20570;-95
2024/01/12 07:28:51;;;;;;;4.22;3.20;;;3.80;79.30;;;;;;4735782;30;20128;-94
2024/01/12 07:31:17;;;;;;;4.82;3.47;;;3.80;79.40;;;;;;4740014;30;20075;-95
2024/01/12 07:33:43;;;;;;;4.05;3.10;;;3.80;79.40;;;;;;4722078;30;20044;-94
2024/01/12 07:36:10;;;;;;;4.93;3.10;;;3.80;79.30;;;;;;4733148;30;20051;-94
2024/01/12 07:38:35;;;;;;;5.03;3.42;;;3.80;79.30;;;;;;4719701;30;20115;-94
2024/01/12 07:41:01;;;;;;;5.18;3.28;;;3.80;79.30;;;;;;4741770;30;20111;-94
2024/01/12 07:43:27;;;;;;;4.40;2.90;;;3.80;79.30;;;;;;4737365;30;20059;-94
2024/01/12 07:45:53;;;;;;;4.72;2.90;;;3.80;79.30;;;;;;4740050;30;20025;-94
2024/01/12 07:48:20;;;;;;;5.20;3.40;;;3.80;79.30;;;;;;4736304;30;20037;-94
2024/01/12 07:50:45;;;;;;;4.95;3.28;;;3.80;79.30;;;;;;4736466;30;20032;-95
2024/01/12 07:53:11;;;;;;;4.75;2.97;;;3.80;79.40;;;;;;4731023;30;20066;-94
2024/01/12 07:55:37;;;;;;;4.65;3.15;;;3.80;79.40;;;;;;4734424;30;20093;-95
2024/01/12 07:58:03;;;;;;;4.10;3.08;;;3.80;79.30;;;;;;4722212;30;20101;-95
2024/01/12 08:00:29;;;;;;;4.35;3.30;;;3.80;79.30;;;;;;4736983;30;20444;-95
2024/01/12 08:02:55;;;;;;;5.38;3.28;;;3.90;79.40;;;;;;4744741;30;20036;-94
2024/01/12 08:05:24;;;;;;;4.82;3.20;;;3.80;79.40;;;;;;4742544;30;20032;-95
2024/01/12 08:07:50;;;;;;;3.75;2.75;;;3.80;79.40;;;;;;4733050;30;20280;-94
2024/01/12 08:10:19;;;;;;;4.40;3.15;;;3.80;79.40;;;;;;4733978;30;20109;-94
2024/01/12 08:12:45;;;;;;;4.40;3.30;;;3.80;80.00;;;;;;4725994;30;20036;-94
2024/01/12 08:15:11;;;;;;;4.68;3.40;;;3.80;79.30;;;;;;4723178;30;20039;-95
2024/01/12 08:17:40;;;;;;;5.45;3.30;;;3.90;79.40;;;;;;4719945;30;20062;-95
2024/01/12 08:20:07;;;;;;;3.95;3.22;;;3.90;79.40;;;;;;4734846;30;20040;-94
2024/01/12 08:22:33;;;;;;;5.03;3.22;;;3.90;79.40;;;;;;4737472;30;20030;-94
2024/01/12 08:25:00;;;;;;;7.78;4.80;;;3.90;79.40;;;;;;4725218;30;20044;-93
2024/01/12 08:27:26;;;;;;;4.72;3.17;;;3.90;79.40;;;;;;4741101;30;20104;-95
2024/01/12 08:29:52;;;;;;;5.25;3.28;;;3.90;79.40;;;;;;4739525;30;20028;-94
2024/01/12 08:32:18;;;;;;;4.47;3.28;;;3.90;79.30;;;;;;4720724;30;20040;-94
2024/01/12 08:34:43;;;;;;;4.50;3.08;;;3.90;79.30;;;;;;4720903;30;20032;-94
2024/01/12 08:37:09;;;;;;;4.90;3.33;;;3.90;79.30;;;;;;4746081;30;20028;-94
2024/01/12 08:39:35;;;;;;;3.83;2.78;;;3.90;79.30;;;;;;4738806;30;20543;-94
2024/01/12 08:42:01;;;;;;;3.88;3.05;;;3.90;79.30;;;;;;4733911;30;20036;-94
2024/01/12 08:44:27;;;;;;;5.50;3.10;;;3.90;79.30;;;;;;4727914;30;20020;-94
2024/01/12 08:46:53;;;;;;;3.75;2.88;;;3.90;79.30;;;;;;4722784;30;20073;-94
2024/01/12 08:49:20;;;;;;;4.35;3.35;;;3.90;79.30;;;;;;4731797;30;20028;-95
2024/01/12 08:51:48;;;;;;;3.90;3.15;;;3.90;79.30;;;;;;4714679;30;20024;-94
2024/01/12 08:54:14;;;;;;;4.85;3.33;;;3.90;79.30;;;;;;4733432;30;20167;-94
2024/01/12 08:56:40;;;;;;;4.25;3.10;;;3.90;79.30;;;;;;4717510;30;20063;-95
2024/01/12 08:59:08;;;;;;;4.05;3.40;;;3.90;79.90;;;;;;4735057;30;20044;-95
2024/01/12 09:01:34;;;;;;;3.75;3.15;;;3.90;79.30;;;;;;4706663;30;20024;-94
2024/01/12 09:04:01;;;;;;;5.18;3.10;;;4.00;79.30;;;;;;4719816;30;20074;-94
2024/01/12 09:06:27;;;;;;;3.58;2.90;;;4.00;79.30;;;;;;4725254;30;20059;-94
2024/01/12 09:08:54;;;;;;;4.55;3.33;;;3.90;79.30;;;;;;4737715;30;20036;-95
2024/01/12 09:11:20;;;;;;;5.03;3.47;;;4.00;79.30;;;;;;4737823;30;20043;-94
2024/01/12 09:13:46;;;;;;;4.35;3.30;;;4.00;79.30;;;;;;4730462;30;20040;-95
2024/01/12 09:16:12;;;;;;;4.32;2.97;;;4.00;79.30;;;;;;4721533;30;20040;-95
2024/01/12 09:18:38;;;;;;;4.75;3.42;;;4.00;79.30;;;;;;4724978;30;20044;-95
2024/01/12 09:21:04;;;;;;;5.28;3.50;;;4.00;79.30;;;;;;4720625;30;20036;-95
2024/01/12 09:23:30;;;;;;;5.45;3.10;;;4.00;79.30;;;;;;4732175;30;20067;-95
2024/01/12 09:25:56;;;;;;;3.85;3.30;;;4.00;79.20;;;;;;4714580;30;20573;-95
2024/01/12 09:28:22;;;;;;;6.43;3.33;;;4.00;79.20;;;;;;4745880;30;20111;-95
2024/01/12 09:30:48;;;;;;;4.38;3.47;;;4.00;79.20;;;;;;4712248;30;20482;-94
2024/01/12 09:33:14;;;;;;;4.30;3.45;;;4.00;79.20;;;;;;4720569;30;20482;-94
2024/01/12 09:35:40;;;;;;;3.38;2.78;;;4.00;79.80;;;;;;4717321;30;20123;-95
2024/01/12 09:38:07;;;;;;;4.25;3.00;;;4.00;79.20;;;;;;4719133;30;20056;-94
2024/01/12 09:40:33;;;;;;;4.10;3.17;;;4.10;79.30;;;;;;4731298;30;20109;-94
2024/01/12 09:43:00;;;;;;;4.68;3.15;;;4.10;79.20;;;;;;4724700;30;20029;-94
2024/01/12 09:45:27;;;;;;;4.30;3.30;;;4.10;79.20;;;;;;4741079;30;20051;-94
2024/01/12 09:47:53;;;;;;;4.80;3.15;;;4.10;79.20;;;;;;4737159;30;20052;-94
2024/01/12 09:50:23;;;;;;;3.90;3.17;;;4.10;79.20;;;;;;4737668;30;20033;-94
2024/01/12 09:52:51;;;;;;;6.15;3.90;;;4.10;79.20;;;;;;4752193;30;20031;-94
2024/01/12 09:55:17;;;;;;;4.60;3.28;;;4.10;79.20;;;;;;4730133;30;20032;-94
2024/01/12 09:57:46;;;;;;;4.90;3.25;;;4.10;79.20;;;;;;4720379;30;20121;-94
2024/01/12 10:00:16;;;;;;;4.18;3.03;;;4.10;79.10;;;;;;4721886;30;20051;-95
2024/01/12 10:02:42;;;;;;;4.70;3.08;;;4.10;79.10;;;;;;4754490;30;20048;-93
2024/01/12 10:05:08;;;;;;;4.60;3.13;;;4.20;79.10;;;;;;4739335;30;20499;-93
2024/01/12 10:07:34;;;;;;;5.07;3.20;;;4.20;79.10;;;;;;4726934;30;20039;-93
2024/01/12 10:10:00;;;;;;;4.38;3.45;;;4.20;79.10;;;;;;4721426;30;20398;-88
2024/01/12 10:12:26;;;;;;;4.32;3.33;;;4.20;79.10;;;;;;4739409;30;20028;-95
2024/01/12 10:15:02;;;;;;;3.67;3.20;;;4.20;79.10;;;;;;4739418;30;20040;-94
2024/01/12 10:17:29;;;;;;;4.13;3.28;;;4.20;79.10;;;;;;4734568;30;20035;-93
2024/01/12 10:19:55;;;;;;;5.43;3.50;;;4.20;79.00;;;;;;4728734;30;20032;-92
2024/01/12 10:22:21;;;;;;;4.50;3.22;;;4.20;79.00;;;;;;4738900;30;20096;-92
2024/01/12 10:24:55;;;;;;;4.60;3.58;;;4.20;79.00;;;;;;4734842;30;20063;-93
2024/01/12 10:27:21;;;;;;;4.45;3.40;;;4.20;79.00;;;;;;4737325;30;20032;-93
2024/01/12 10:29:46;;;;;;;5.03;3.42;;;4.20;78.90;;;;;;4734374;30;20029;-93
2024/01/12 10:32:12;;;;;;;4.90;3.40;;;4.30;79.00;;;;;;4738351;30;20057;-93
2024/01/12 10:34:39;;;;;;;3.95;3.33;;;4.30;79.00;;;;;;4714029;30;20118;-93
2024/01/12 10:37:07;;;;;;;4.72;3.58;;;4.30;79.00;;;;;;4736147;30;20040;-91
2024/01/12 10:39:36;;;;;;;4.40;3.30;;;4.30;79.00;;;;;;4737310;30;20044;-93
2024/01/12 10:42:04;;;;;;;4.90;3.40;;;4.30;79.00;;;;;;4734191;30;20060;-92
2024/01/12 10:44:35;;;;;;;5.32;3.40;;;4.30;78.90;;;;;;4739407;30;20044;-92
2024/01/12 10:47:06;;;;;;;4.72;3.58;;;4.30;78.90;;;;;;4738000;30;20028;-92
2024/01/12 10:49:46;;;;;;;5.13;3.58;;;4.40;79.00;;;;;;4729728;30;20221;-93
2024/01/12 10:52:30;;;;;;;5.47;3.42;;;4.40;78.90;;;;;;4738699;30;20080;-93
2024/01/12 10:55:04;;;;;;;4.18;3.40;;;4.40;78.90;;;;;;4732353;30;20040;-92
2024/01/12 10:57:32;;;;;;;4.53;3.30;;;4.40;78.90;;;;;;4736403;30;20033;-92
2024/01/12 10:59:59;;;;;;;5.82;4.00;;;4.30;78.80;;;;;;4711226;30;20499;-92
2024/01/12 11:02:26;;;;;;;5.45;3.67;;;4.40;78.80;;;;;;4739881;30;20040;-92
2024/01/12 11:04:52;;;;;;;4.97;3.55;;;4.40;78.90;;;;;;4733948;30;20507;-93
2024/01/12 11:07:18;;;;;;;5.60;3.60;;;4.40;78.80;;;;;;4741802;30;20032;-92
2024/01/12 11:09:45;;;;;;;4.82;3.70;;;4.40;78.90;;;;;;4748928;30;20127;-92
2024/01/12 11:12:16;;;;;;;5.82;3.90;;;4.40;78.80;;;;;;4734768;30;20107;-93
2024/01/12 11:14:42;;;;;;;5.65;3.55;;;4.40;78.80;;;;;;4721576;30;20612;-93
2024/01/12 11:17:08;;;;;;;4.53;3.45;;;4.40;78.80;;;;;;4712669;30;20057;-93
2024/01/12 11:19:34;;;;;;;5.43;3.67;;;4.50;78.80;;;;;;4728113;30;20115;-92
2024/01/12 11:22:09;;;;;;;4.50;3.45;;;4.50;78.80;;;;;;4736820;30;20042;-93
2024/01/12 11:24:42;;;;;;;4.97;3.78;;;4.50;78.80;;;;;;4727316;30;20037;-92
2024/01/12 11:27:12;;;;;;;4.47;3.60;;;4.50;78.80;;;;;;4733100;30;20036;-88
2024/01/12 11:29:39;;;;;;;4.85;3.80;;;4.50;78.80;;;;;;4736731;30;20044;-94
2024/01/12 11:32:06;;;;;;;4.40;3.50;;;4.50;78.80;;;;;;4735711;30;20121;-91
2024/01/12 11:34:38;;;;;;;4.25;3.30;;;4.50;78.80;;;;;;4734087;30;20125;-93
2024/01/12 11:37:08;;;;;;;4.82;3.42;;;4.50;78.80;;;;;;4722657;30;20036;-91
2024/01/12 11:39:37;;;;;;;4.60;3.17;;;4.50;78.80;;;;;;4736943;30;20038;-90
2024/01/12 11:42:05;;;;;;;4.25;3.17;;;4.50;78.80;;;;;;4736469;30;20036;-91
2024/01/12 11:44:33;;;;;;;6.32;3.60;;;4.50;78.70;;;;;;4742252;30;20040;-92
2024/01/12 11:47:00;;;;;;;5.13;3.75;;;4.60;78.80;;;;;;4748078;30;20032;-91
2024/01/12 11:49:25;;;;;;;6.18;3.50;;;4.60;78.80;;;;;;4735727;30;20033;-92
2024/01/12 11:52:02;;;;;;;5.90;3.67;;;4.50;78.70;;;;;;4728734;30;20047;-89
2024/01/12 11:54:27;;;;;;;5.35;3.42;;;4.60;78.80;;;;;;4734983;30;20032;-93
2024/01/12 11:56:53;;;;;;;4.40;3.40;;;4.60;78.70;;;;;;4744399;30;20094;-90
2024/01/12 11:59:19;;;;;;;5.00;3.58;;;4.60;78.70;;;;;;4733054;30;20115;-95
2024/01/12 12:01:45;;;;;;;5.03;3.45;;;4.60;78.70;;;;;;4754505;30;20428;-93
2024/01/12 12:04:10;;;;;;;4.55;3.30;;;4.60;78.70;;;;;;4729998;30;20040;-95
2024/01/12 12:06:36;;;;;;;5.65;3.70;;;4.60;78.70;;;;;;4733025;30;20104;-94
2024/01/12 12:09:03;;;;;;;4.35;3.45;;;4.60;78.70;;;;;;4732317;30;20043;-95
2024/01/12 12:11:29;;;;;;;3.53;3.20;;;4.60;78.70;;;;;;4729871;30;20029;-95
2024/01/12 12:13:55;;;;;;;4.82;3.38;;;4.70;78.70;;;;;;4724467;30;20040;-93
2024/01/12 12:16:21;;;;;;;4.88;3.47;;;4.60;78.60;;;;;;4745106;30;20032;-95
2024/01/12 12:18:46;;;;;;;5.38;3.45;;;4.70;78.70;;;;;;4716757;30;20032;-94
2024/01/12 12:21:12;;;;;;;5.10;3.40;;;4.60;78.60;;;;;;4734668;30;20036;-94
2024/01/12 12:23:41;;;;;;;4.80;3.50;;;4.70;78.70;;;;;;4721036;30;20583;-94
2024/01/12 12:26:08;;;;;;;4.88;3.63;;;4.70;78.70;;;;;;4737479;30;20119;-95
2024/01/12 12:28:34;;;;;;;3.85;3.22;;;4.70;78.60;;;;;;4756236;30;20060;-95
2024/01/12 12:30:59;;;;;;;5.63;3.33;;;4.70;78.60;;;;;;4737520;30;20521;-95
2024/01/12 12:33:25;;;;;;;5.05;3.35;;;4.70;78.60;;;;;;4731347;30;20040;-95
2024/01/12 12:36:10;;;;;;;4.43;3.10;;;4.70;78.60;;;;;;4749923;30;20060;-93
2024/01/12 12:38:39;;;;;;;3.83;3.03;;;4.70;78.60;;;;;;4731128;30;20513;-93
2024/01/12 12:41:09;;;;;;;4.50;3.33;;;4.70;78.60;;;;;;4720192;30;20040;-95
2024/01/12 12:43:35;;;;;;;4.35;3.45;;;4.70;78.50;;;;;;4731906;30;20054;-93
2024/01/12 12:46:02;;;;;;;4.22;3.17;;;4.80;78.60;;;;;;4720974;30;20127;-93
2024/01/12 12:48:28;;;;;;;5.03;3.50;;;4.70;78.50;;;;;;4735238;30;20566;-95
2024/01/12 12:50:54;;;;;;;3.92;3.30;;;4.80;78.60;;;;;;4710385;30;20025;-94